sensor_id;sensor_type;location;lat;lon;timestamp;temperature;humidity
12819;DHT22;6474;53.474;9.894;2023-12-14T00:01:58;4.70;96.20
12819;DHT22;6474;53.474;9.894;2023-12-14T00:04:26;4.70;96.20
12819;DHT22;6474;53.474;9.894;2023-12-14T00:06:54;4.70;96.20
12819;DHT22;6474;53.474;9.894;2023-12-14T00:09:22;4.70;96.20
12819;DHT22;6474;53.474;9.894;2023-12-14T00:11:50;4.70;96.20
12819;DHT22;6474;53.474;9.894;2023-12-14T00:14:18;4.70;96.20
12819;DHT22;6474;53.474;9.894;2023-12-14T00:16:47;4.70;96.20
12819;DHT22;6474;53.474;9.894;2023-12-14T00:19:16;4.70;96.00
12819;DHT22;6474;53.474;9.894;2023-12-14T00:21:44;4.70;96.20
12819;DHT22;6474;53.474;9.894;2023-12-14T00:24:12;4.70;96.20
12819;DHT22;6474;53.474;9.894;2023-12-14T00:26:40;4.70;96.20
12819;DHT22;6474;53.474;9.894;2023-12-14T00:29:07;4.70;96.20
12819;DHT22;6474;53.474;9.894;2023-12-14T00:31:35;4.70;96.20
12819;DHT22;6474;53.474;9.894;2023-12-14T00:34:05;4.80;96.20
12819;DHT22;6474;53.474;9.894;2023-12-14T00:36:33;4.80;96.20
12819;DHT22;6474;53.474;9.894;2023-12-14T00:39:01;4.80;96.20
12819;DHT22;6474;53.474;9.894;2023-12-14T00:41:29;4.80;96.20
12819;DHT22;6474;53.474;9.894;2023-12-14T00:43:57;4.80;96.20
12819;DHT22;6474;53.474;9.894;2023-12-14T00:46:25;4.80;96.20
12819;DHT22;6474;53.474;9.894;2023-12-14T00:48:53;4.80;96.20
12819;DHT22;6474;53.474;9.894;2023-12-14T00:51:22;4.80;96.20
12819;DHT22;6474;53.474;9.894;2023-12-14T00:53:50;4.80;96.10
12819;DHT22;6474;53.474;9.894;2023-12-14T00:56:18;4.80;96.20
12819;DHT22;6474;53.474;9.894;2023-12-14T00:58:47;4.80;96.10
12819;DHT22;6474;53.474;9.894;2023-12-14T01:01:15;4.80;96.10
12819;DHT22;6474;53.474;9.894;2023-12-14T01:03:43;4.80;96.20
12819;DHT22;6474;53.474;9.894;2023-12-14T01:06:11;4.90;96.20
12819;DHT22;6474;53.474;9.894;2023-12-14T01:08:40;4.90;96.20
12819;DHT22;6474;53.474;9.894;2023-12-14T01:11:08;4.90;96.10
12819;DHT22;6474;53.474;9.894;2023-12-14T01:13:37;4.90;96.10
12819;DHT22;6474;53.474;9.894;2023-12-14T01:16:06;4.90;96.20
12819;DHT22;6474;53.474;9.894;2023-12-14T01:18:34;4.90;96.10
12819;DHT22;6474;53.474;9.894;2023-12-14T01:21:02;4.80;96.10
12819;DHT22;6474;53.474;9.894;2023-12-14T01:23:30;4.80;96.10
12819;DHT22;6474;53.474;9.894;2023-12-14T01:25:59;4.90;96.10
12819;DHT22;6474;53.474;9.894;2023-12-14T01:28:27;4.90;96.10
12819;DHT22;6474;53.474;9.894;2023-12-14T01:30:55;4.90;96.10
12819;DHT22;6474;53.474;9.894;2023-12-14T01:33:24;4.90;96.10
12819;DHT22;6474;53.474;9.894;2023-12-14T01:35:52;4.90;96.10
12819;DHT22;6474;53.474;9.894;2023-12-14T01:38:20;4.90;96.10
12819;DHT22;6474;53.474;9.894;2023-12-14T01:40:48;4.90;96.10
12819;DHT22;6474;53.474;9.894;2023-12-14T01:43:17;4.90;96.10
12819;DHT22;6474;53.474;9.894;2023-12-14T01:45:45;4.90;96.10
12819;DHT22;6474;53.474;9.894;2023-12-14T01:48:15;4.90;96.10
12819;DHT22;6474;53.474;9.894;2023-12-14T01:50:43;4.90;96.10
12819;DHT22;6474;53.474;9.894;2023-12-14T01:53:11;4.90;96.10
12819;DHT22;6474;53.474;9.894;2023-12-14T01:55:40;4.90;96.10
12819;DHT22;6474;53.474;9.894;2023-12-14T01:58:07;4.90;96.10
12819;DHT22;6474;53.474;9.894;2023-12-14T02:00:41;4.90;96.10
12819;DHT22;6474;53.474;9.894;2023-12-14T02:03:10;4.90;96.20
12819;DHT22;6474;53.474;9.894;2023-12-14T02:05:38;4.90;96.10
12819;DHT22;6474;53.474;9.894;2023-12-14T02:08:06;4.90;96.10
12819;DHT22;6474;53.474;9.894;2023-12-14T02:10:34;5.00;96.20
12819;DHT22;6474;53.474;9.894;2023-12-14T02:13:02;5.00;96.20
12819;DHT22;6474;53.474;9.894;2023-12-14T02:15:30;5.00;96.20
12819;DHT22;6474;53.474;9.894;2023-12-14T02:17:59;5.00;96.20
12819;DHT22;6474;53.474;9.894;2023-12-14T02:20:27;5.00;96.10
12819;DHT22;6474;53.474;9.894;2023-12-14T02:22:57;5.00;96.10
12819;DHT22;6474;53.474;9.894;2023-12-14T02:25:25;5.00;96.10
12819;DHT22;6474;53.474;9.894;2023-12-14T02:27:52;5.00;96.10
12819;DHT22;6474;53.474;9.894;2023-12-14T02:30:20;5.00;96.20
12819;DHT22;6474;53.474;9.894;2023-12-14T02:32:48;5.00;96.10
12819;DHT22;6474;53.474;9.894;2023-12-14T02:35:16;5.00;96.10
12819;DHT22;6474;53.474;9.894;2023-12-14T02:37:45;5.00;96.10
12819;DHT22;6474;53.474;9.894;2023-12-14T02:40:14;5.00;96.10
12819;DHT22;6474;53.474;9.894;2023-12-14T02:42:42;5.00;96.10
12819;DHT22;6474;53.474;9.894;2023-12-14T02:45:10;5.00;96.20
12819;DHT22;6474;53.474;9.894;2023-12-14T02:47:38;5.00;96.10
12819;DHT22;6474;53.474;9.894;2023-12-14T02:50:07;5.00;96.10
12819;DHT22;6474;53.474;9.894;2023-12-14T02:52:35;5.00;96.10
12819;DHT22;6474;53.474;9.894;2023-12-14T02:55:03;5.00;96.10
12819;DHT22;6474;53.474;9.894;2023-12-14T02:57:33;5.00;96.20
12819;DHT22;6474;53.474;9.894;2023-12-14T03:00:01;5.00;96.50
12819;DHT22;6474;53.474;9.894;2023-12-14T03:02:29;5.00;96.20
12819;DHT22;6474;53.474;9.894;2023-12-14T03:04:57;5.00;96.20
12819;DHT22;6474;53.474;9.894;2023-12-14T03:07:25;5.00;96.20
12819;DHT22;6474;53.474;9.894;2023-12-14T03:09:54;5.00;96.20
12819;DHT22;6474;53.474;9.894;2023-12-14T03:12:21;5.00;96.20
12819;DHT22;6474;53.474;9.894;2023-12-14T03:14:51;5.00;96.20
12819;DHT22;6474;53.474;9.894;2023-12-14T03:17:19;5.00;96.10
12819;DHT22;6474;53.474;9.894;2023-12-14T03:19:47;5.00;96.10
12819;DHT22;6474;53.474;9.894;2023-12-14T03:22:15;5.00;96.20
12819;DHT22;6474;53.474;9.894;2023-12-14T03:24:45;5.00;96.20
12819;DHT22;6474;53.474;9.894;2023-12-14T03:27:13;5.00;96.10
12819;DHT22;6474;53.474;9.894;2023-12-14T03:29:39;5.00;96.10
12819;DHT22;6474;53.474;9.894;2023-12-14T03:32:09;5.00;96.20
12819;DHT22;6474;53.474;9.894;2023-12-14T03:34:37;5.00;96.20
12819;DHT22;6474;53.474;9.894;2023-12-14T03:37:04;5.00;96.20
12819;DHT22;6474;53.474;9.894;2023-12-14T03:39:33;5.00;96.20
12819;DHT22;6474;53.474;9.894;2023-12-14T03:42:00;5.00;96.50
12819;DHT22;6474;53.474;9.894;2023-12-14T03:44:28;5.00;96.20
12819;DHT22;6474;53.474;9.894;2023-12-14T03:46:57;5.00;96.20
12819;DHT22;6474;53.474;9.894;2023-12-14T03:49:28;5.00;96.20
12819;DHT22;6474;53.474;9.894;2023-12-14T03:51:55;5.00;96.20
12819;DHT22;6474;53.474;9.894;2023-12-14T03:54:23;5.00;96.20
12819;DHT22;6474;53.474;9.894;2023-12-14T03:56:51;5.00;96.20
12819;DHT22;6474;53.474;9.894;2023-12-14T03:59:19;5.00;96.20
12819;DHT22;6474;53.474;9.894;2023-12-14T04:01:47;5.00;96.20
12819;DHT22;6474;53.474;9.894;2023-12-14T04:04:15;5.00;96.20
12819;DHT22;6474;53.474;9.894;2023-12-14T04:06:44;5.00;96.20
12819;DHT22;6474;53.474;9.894;2023-12-14T04:09:12;5.00;96.20
12819;DHT22;6474;53.474;9.894;2023-12-14T04:11:39;5.00;96.20
12819;DHT22;6474;53.474;9.894;2023-12-14T04:14:07;5.00;96.20
12819;DHT22;6474;53.474;9.894;2023-12-14T04:16:36;5.00;96.20
12819;DHT22;6474;53.474;9.894;2023-12-14T04:19:04;5.00;96.20
12819;DHT22;6474;53.474;9.894;2023-12-14T04:21:37;5.00;96.20
12819;DHT22;6474;53.474;9.894;2023-12-14T04:24:06;5.00;96.20
12819;DHT22;6474;53.474;9.894;2023-12-14T04:26:35;5.00;96.10
12819;DHT22;6474;53.474;9.894;2023-12-14T04:29:04;5.00;96.10
12819;DHT22;6474;53.474;9.894;2023-12-14T04:31:33;4.90;96.10
12819;DHT22;6474;53.474;9.894;2023-12-14T04:34:01;4.90;96.10
12819;DHT22;6474;53.474;9.894;2023-12-14T04:36:29;5.00;96.20
12819;DHT22;6474;53.474;9.894;2023-12-14T04:38:57;4.90;96.10
12819;DHT22;6474;53.474;9.894;2023-12-14T04:41:26;4.90;96.10
12819;DHT22;6474;53.474;9.894;2023-12-14T04:43:54;4.90;96.10
12819;DHT22;6474;53.474;9.894;2023-12-14T04:46:21;4.90;96.10
12819;DHT22;6474;53.474;9.894;2023-12-14T04:48:49;4.90;96.10
12819;DHT22;6474;53.474;9.894;2023-12-14T04:51:17;4.90;96.10
12819;DHT22;6474;53.474;9.894;2023-12-14T04:53:45;4.90;96.10
12819;DHT22;6474;53.474;9.894;2023-12-14T04:56:13;4.90;96.10
12819;DHT22;6474;53.474;9.894;2023-12-14T04:58:42;4.90;96.10
12819;DHT22;6474;53.474;9.894;2023-12-14T05:01:11;4.90;96.10
12819;DHT22;6474;53.474;9.894;2023-12-14T05:03:39;4.90;96.10
12819;DHT22;6474;53.474;9.894;2023-12-14T05:06:07;4.90;96.10
12819;DHT22;6474;53.474;9.894;2023-12-14T05:08:35;4.90;96.10
12819;DHT22;6474;53.474;9.894;2023-12-14T05:11:04;4.90;96.10
12819;DHT22;6474;53.474;9.894;2023-12-14T05:13:32;4.90;96.10
12819;DHT22;6474;53.474;9.894;2023-12-14T05:16:01;4.90;96.10
12819;DHT22;6474;53.474;9.894;2023-12-14T05:18:29;4.90;96.10
12819;DHT22;6474;53.474;9.894;2023-12-14T05:20:57;4.90;96.10
12819;DHT22;6474;53.474;9.894;2023-12-14T05:23:25;4.90;96.10
12819;DHT22;6474;53.474;9.894;2023-12-14T05:25:53;4.90;96.20
12819;DHT22;6474;53.474;9.894;2023-12-14T05:28:21;4.90;96.20
12819;DHT22;6474;53.474;9.894;2023-12-14T05:30:49;4.90;96.10
12819;DHT22;6474;53.474;9.894;2023-12-14T05:33:18;4.90;96.10
12819;DHT22;6474;53.474;9.894;2023-12-14T05:35:46;4.90;96.10
12819;DHT22;6474;53.474;9.894;2023-12-14T05:38:14;4.90;96.40
12819;DHT22;6474;53.474;9.894;2023-12-14T05:40:42;5.00;96.20
12819;DHT22;6474;53.474;9.894;2023-12-14T05:43:10;5.00;96.20
12819;DHT22;6474;53.474;9.894;2023-12-14T05:45:38;5.00;96.20
12819;DHT22;6474;53.474;9.894;2023-12-14T05:48:06;4.90;96.10
12819;DHT22;6474;53.474;9.894;2023-12-14T05:50:36;5.00;96.20
12819;DHT22;6474;53.474;9.894;2023-12-14T05:53:04;5.00;96.20
12819;DHT22;6474;53.474;9.894;2023-12-14T05:55:32;5.00;96.10
12819;DHT22;6474;53.474;9.894;2023-12-14T05:58:00;5.00;96.20
12819;DHT22;6474;53.474;9.894;2023-12-14T06:00:28;5.00;96.20
12819;DHT22;6474;53.474;9.894;2023-12-14T06:02:56;5.00;96.20
12819;DHT22;6474;53.474;9.894;2023-12-14T06:05:24;5.00;96.10
12819;DHT22;6474;53.474;9.894;2023-12-14T06:07:54;5.00;96.20
12819;DHT22;6474;53.474;9.894;2023-12-14T06:10:22;5.00;96.10
12819;DHT22;6474;53.474;9.894;2023-12-14T06:12:49;5.00;96.10
12819;DHT22;6474;53.474;9.894;2023-12-14T06:15:17;5.00;96.20
12819;DHT22;6474;53.474;9.894;2023-12-14T06:17:45;5.00;96.00
12819;DHT22;6474;53.474;9.894;2023-12-14T06:20:13;5.00;96.20
12819;DHT22;6474;53.474;9.894;2023-12-14T06:22:41;5.00;96.10
12819;DHT22;6474;53.474;9.894;2023-12-14T06:25:10;5.00;96.20
12819;DHT22;6474;53.474;9.894;2023-12-14T06:27:38;5.00;96.10
12819;DHT22;6474;53.474;9.894;2023-12-14T06:30:07;5.00;96.20
12819;DHT22;6474;53.474;9.894;2023-12-14T06:32:36;5.00;96.20
12819;DHT22;6474;53.474;9.894;2023-12-14T06:35:05;5.00;96.20
12819;DHT22;6474;53.474;9.894;2023-12-14T06:37:33;5.00;96.10
12819;DHT22;6474;53.474;9.894;2023-12-14T06:40:01;5.00;96.20
12819;DHT22;6474;53.474;9.894;2023-12-14T06:42:30;5.00;96.20
12819;DHT22;6474;53.474;9.894;2023-12-14T06:45:01;5.00;96.10
12819;DHT22;6474;53.474;9.894;2023-12-14T06:47:30;5.00;96.20
12819;DHT22;6474;53.474;9.894;2023-12-14T06:49:58;5.00;96.10
12819;DHT22;6474;53.474;9.894;2023-12-14T06:52:26;5.00;96.10
12819;DHT22;6474;53.474;9.894;2023-12-14T06:54:54;5.00;96.10
12819;DHT22;6474;53.474;9.894;2023-12-14T06:57:23;5.00;96.10
12819;DHT22;6474;53.474;9.894;2023-12-14T06:59:54;5.00;96.10
12819;DHT22;6474;53.474;9.894;2023-12-14T07:02:22;5.00;96.10
12819;DHT22;6474;53.474;9.894;2023-12-14T07:04:50;5.00;96.20
12819;DHT22;6474;53.474;9.894;2023-12-14T07:07:18;5.00;96.10
12819;DHT22;6474;53.474;9.894;2023-12-14T07:09:46;5.00;96.20
12819;DHT22;6474;53.474;9.894;2023-12-14T07:12:13;5.00;96.10
12819;DHT22;6474;53.474;9.894;2023-12-14T07:14:41;5.00;96.10
12819;DHT22;6474;53.474;9.894;2023-12-14T07:17:11;5.00;96.10
12819;DHT22;6474;53.474;9.894;2023-12-14T07:19:38;5.00;96.10
12819;DHT22;6474;53.474;9.894;2023-12-14T07:22:06;5.00;96.10
12819;DHT22;6474;53.474;9.894;2023-12-14T07:24:34;5.00;96.10
12819;DHT22;6474;53.474;9.894;2023-12-14T07:27:14;5.00;96.10
12819;DHT22;6474;53.474;9.894;2023-12-14T07:29:42;5.00;96.10
12819;DHT22;6474;53.474;9.894;2023-12-14T07:32:11;5.00;96.20
12819;DHT22;6474;53.474;9.894;2023-12-14T07:34:39;5.00;96.20
12819;DHT22;6474;53.474;9.894;2023-12-14T07:37:07;5.00;96.20
12819;DHT22;6474;53.474;9.894;2023-12-14T07:39:35;4.90;96.10
12819;DHT22;6474;53.474;9.894;2023-12-14T07:42:04;5.00;96.20
12819;DHT22;6474;53.474;9.894;2023-12-14T07:44:32;5.00;96.20
12819;DHT22;6474;53.474;9.894;2023-12-14T07:47:01;5.00;96.20
12819;DHT22;6474;53.474;9.894;2023-12-14T07:49:30;5.00;96.20
12819;DHT22;6474;53.474;9.894;2023-12-14T07:51:58;5.00;96.30
12819;DHT22;6474;53.474;9.894;2023-12-14T07:54:26;5.00;96.30
12819;DHT22;6474;53.474;9.894;2023-12-14T07:56:55;5.00;96.20
12819;DHT22;6474;53.474;9.894;2023-12-14T07:59:23;5.00;96.20
12819;DHT22;6474;53.474;9.894;2023-12-14T08:01:51;5.00;96.20
12819;DHT22;6474;53.474;9.894;2023-12-14T08:04:19;5.00;96.20
12819;DHT22;6474;53.474;9.894;2023-12-14T08:06:48;5.00;96.20
12819;DHT22;6474;53.474;9.894;2023-12-14T08:09:16;5.00;96.30
12819;DHT22;6474;53.474;9.894;2023-12-14T08:11:44;5.00;96.20
12819;DHT22;6474;53.474;9.894;2023-12-14T08:14:12;5.00;96.20
12819;DHT22;6474;53.474;9.894;2023-12-14T08:16:39;5.00;96.20
12819;DHT22;6474;53.474;9.894;2023-12-14T08:19:07;5.00;96.20
12819;DHT22;6474;53.474;9.894;2023-12-14T08:21:35;5.00;96.20
12819;DHT22;6474;53.474;9.894;2023-12-14T08:24:05;5.00;96.20
12819;DHT22;6474;53.474;9.894;2023-12-14T08:26:33;5.00;96.20
12819;DHT22;6474;53.474;9.894;2023-12-14T08:29:00;5.00;96.20
12819;DHT22;6474;53.474;9.894;2023-12-14T08:31:28;5.00;96.20
12819;DHT22;6474;53.474;9.894;2023-12-14T08:33:56;5.00;96.30
12819;DHT22;6474;53.474;9.894;2023-12-14T08:36:24;5.00;96.30
12819;DHT22;6474;53.474;9.894;2023-12-14T08:38:52;5.00;96.30
12819;DHT22;6474;53.474;9.894;2023-12-14T08:41:22;5.10;96.40
12819;DHT22;6474;53.474;9.894;2023-12-14T08:43:50;5.10;96.30
12819;DHT22;6474;53.474;9.894;2023-12-14T08:46:18;5.10;96.40
12819;DHT22;6474;53.474;9.894;2023-12-14T08:48:46;5.10;96.40
12819;DHT22;6474;53.474;9.894;2023-12-14T08:51:14;5.20;96.40
12819;DHT22;6474;53.474;9.894;2023-12-14T08:53:42;5.20;96.40
12819;DHT22;6474;53.474;9.894;2023-12-14T08:56:10;5.20;96.40
12819;DHT22;6474;53.474;9.894;2023-12-14T08:58:39;5.20;96.40
12819;DHT22;6474;53.474;9.894;2023-12-14T09:01:07;5.20;96.40
12819;DHT22;6474;53.474;9.894;2023-12-14T09:03:35;5.20;96.40
12819;DHT22;6474;53.474;9.894;2023-12-14T09:06:03;5.20;96.40
12819;DHT22;6474;53.474;9.894;2023-12-14T09:08:32;5.20;96.50
12819;DHT22;6474;53.474;9.894;2023-12-14T09:11:00;5.20;96.40
12819;DHT22;6474;53.474;9.894;2023-12-14T09:13:28;5.20;96.50
12819;DHT22;6474;53.474;9.894;2023-12-14T09:15:57;5.30;96.50
12819;DHT22;6474;53.474;9.894;2023-12-14T09:18:25;5.30;96.50
12819;DHT22;6474;53.474;9.894;2023-12-14T09:20:53;5.30;96.60
12819;DHT22;6474;53.474;9.894;2023-12-14T09:23:21;5.30;96.60
12819;DHT22;6474;53.474;9.894;2023-12-14T09:25:49;5.30;96.60
12819;DHT22;6474;53.474;9.894;2023-12-14T09:28:17;5.30;96.60
12819;DHT22;6474;53.474;9.894;2023-12-14T09:30:45;5.30;96.50
12819;DHT22;6474;53.474;9.894;2023-12-14T09:33:14;5.30;96.60
12819;DHT22;6474;53.474;9.894;2023-12-14T09:35:43;5.30;96.60
12819;DHT22;6474;53.474;9.894;2023-12-14T09:38:11;5.40;96.60
12819;DHT22;6474;53.474;9.894;2023-12-14T09:40:44;5.40;96.60
12819;DHT22;6474;53.474;9.894;2023-12-14T09:43:12;5.40;96.60
12819;DHT22;6474;53.474;9.894;2023-12-14T09:45:41;5.40;96.60
12819;DHT22;6474;53.474;9.894;2023-12-14T09:48:12;5.50;96.60
12819;DHT22;6474;53.474;9.894;2023-12-14T09:50:42;5.50;96.70
12819;DHT22;6474;53.474;9.894;2023-12-14T09:53:11;5.50;96.70
12819;DHT22;6474;53.474;9.894;2023-12-14T09:55:39;5.50;96.70
12819;DHT22;6474;53.474;9.894;2023-12-14T09:58:07;5.50;96.70
12819;DHT22;6474;53.474;9.894;2023-12-14T10:00:39;5.50;96.70
12819;DHT22;6474;53.474;9.894;2023-12-14T10:03:21;5.60;96.70
12819;DHT22;6474;53.474;9.894;2023-12-14T10:05:51;5.60;96.70
12819;DHT22;6474;53.474;9.894;2023-12-14T10:08:20;5.60;96.70
12819;DHT22;6474;53.474;9.894;2023-12-14T10:10:49;5.60;96.90
12819;DHT22;6474;53.474;9.894;2023-12-14T10:13:20;5.60;96.70
12819;DHT22;6474;53.474;9.894;2023-12-14T10:15:48;5.70;96.70
12819;DHT22;6474;53.474;9.894;2023-12-14T10:18:22;5.70;96.70
12819;DHT22;6474;53.474;9.894;2023-12-14T10:20:53;5.70;96.70
12819;DHT22;6474;53.474;9.894;2023-12-14T10:23:21;5.70;97.00
12819;DHT22;6474;53.474;9.894;2023-12-14T10:25:49;5.70;96.70
12819;DHT22;6474;53.474;9.894;2023-12-14T10:28:17;5.70;96.60
12819;DHT22;6474;53.474;9.894;2023-12-14T10:30:45;5.70;96.70
12819;DHT22;6474;53.474;9.894;2023-12-14T10:33:13;5.70;96.70
12819;DHT22;6474;53.474;9.894;2023-12-14T10:35:43;5.70;96.60
12819;DHT22;6474;53.474;9.894;2023-12-14T10:38:15;5.70;96.60
12819;DHT22;6474;53.474;9.894;2023-12-14T10:40:45;5.70;96.70
12819;DHT22;6474;53.474;9.894;2023-12-14T10:43:15;5.70;96.60
12819;DHT22;6474;53.474;9.894;2023-12-14T10:46:05;5.70;96.70
12819;DHT22;6474;53.474;9.894;2023-12-14T10:48:35;5.70;96.70
12819;DHT22;6474;53.474;9.894;2023-12-14T10:51:04;5.70;96.60
12819;DHT22;6474;53.474;9.894;2023-12-14T10:53:35;5.70;96.60
12819;DHT22;6474;53.474;9.894;2023-12-14T10:56:05;5.70;96.60
12819;DHT22;6474;53.474;9.894;2023-12-14T10:58:46;5.70;96.60
12819;DHT22;6474;53.474;9.894;2023-12-14T11:01:15;5.70;96.60
12819;DHT22;6474;53.474;9.894;2023-12-14T11:03:44;5.70;96.70
12819;DHT22;6474;53.474;9.894;2023-12-14T11:06:27;5.60;96.60
12819;DHT22;6474;53.474;9.894;2023-12-14T11:09:00;5.70;96.60
12819;DHT22;6474;53.474;9.894;2023-12-14T11:11:40;5.60;96.60
12819;DHT22;6474;53.474;9.894;2023-12-14T11:14:11;5.60;96.60
12819;DHT22;6474;53.474;9.894;2023-12-14T11:16:39;5.60;96.60
12819;DHT22;6474;53.474;9.894;2023-12-14T11:19:28;5.60;96.60
12819;DHT22;6474;53.474;9.894;2023-12-14T11:22:09;5.60;96.70
12819;DHT22;6474;53.474;9.894;2023-12-14T11:24:51;5.60;96.70
12819;DHT22;6474;53.474;9.894;2023-12-14T11:27:20;5.60;96.70
12819;DHT22;6474;53.474;9.894;2023-12-14T11:29:48;5.60;96.60
12819;DHT22;6474;53.474;9.894;2023-12-14T11:32:19;5.60;96.60
12819;DHT22;6474;53.474;9.894;2023-12-14T11:34:47;5.60;96.60
12819;DHT22;6474;53.474;9.894;2023-12-14T11:37:15;5.60;96.60
12819;DHT22;6474;53.474;9.894;2023-12-14T11:39:44;5.60;96.60
12819;DHT22;6474;53.474;9.894;2023-12-14T11:42:13;5.60;96.60
12819;DHT22;6474;53.474;9.894;2023-12-14T11:44:44;5.60;96.60
12819;DHT22;6474;53.474;9.894;2023-12-14T11:47:12;5.60;96.60
12819;DHT22;6474;53.474;9.894;2023-12-14T11:49:40;5.60;96.60
12819;DHT22;6474;53.474;9.894;2023-12-14T11:52:08;5.60;96.50
12819;DHT22;6474;53.474;9.894;2023-12-14T11:54:37;5.70;96.60
12819;DHT22;6474;53.474;9.894;2023-12-14T11:57:06;5.70;96.60
12819;DHT22;6474;53.474;9.894;2023-12-14T11:59:37;5.60;96.50
12819;DHT22;6474;53.474;9.894;2023-12-14T12:02:05;5.60;96.50
12819;DHT22;6474;53.474;9.894;2023-12-14T12:04:34;5.60;96.50
12819;DHT22;6474;53.474;9.894;2023-12-14T12:07:04;5.60;96.50
12819;DHT22;6474;53.474;9.894;2023-12-14T12:09:35;5.60;96.50
12819;DHT22;6474;53.474;9.894;2023-12-14T12:12:07;5.60;96.50
12819;DHT22;6474;53.474;9.894;2023-12-14T12:14:36;5.60;96.50
12819;DHT22;6474;53.474;9.894;2023-12-14T12:17:05;5.70;96.50
12819;DHT22;6474;53.474;9.894;2023-12-14T12:19:33;5.70;96.60
12819;DHT22;6474;53.474;9.894;2023-12-14T12:22:02;5.70;96.60
12819;DHT22;6474;53.474;9.894;2023-12-14T12:24:30;5.70;96.50
12819;DHT22;6474;53.474;9.894;2023-12-14T12:27:00;5.70;96.50
12819;DHT22;6474;53.474;9.894;2023-12-14T12:29:30;5.70;96.40
12819;DHT22;6474;53.474;9.894;2023-12-14T12:31:58;5.70;96.40
12819;DHT22;6474;53.474;9.894;2023-12-14T12:34:26;5.70;96.40
12819;DHT22;6474;53.474;9.894;2023-12-14T12:36:54;5.70;96.50
12819;DHT22;6474;53.474;9.894;2023-12-14T12:39:24;5.70;96.50
12819;DHT22;6474;53.474;9.894;2023-12-14T12:41:53;5.70;96.50
12819;DHT22;6474;53.474;9.894;2023-12-14T12:44:21;5.70;96.50
12819;DHT22;6474;53.474;9.894;2023-12-14T12:46:50;5.70;96.40
12819;DHT22;6474;53.474;9.894;2023-12-14T12:49:34;5.70;96.40
12819;DHT22;6474;53.474;9.894;2023-12-14T12:52:02;5.70;96.40
12819;DHT22;6474;53.474;9.894;2023-12-14T12:54:31;5.70;96.40
12819;DHT22;6474;53.474;9.894;2023-12-14T12:56:59;5.80;96.50
12819;DHT22;6474;53.474;9.894;2023-12-14T12:59:27;5.70;96.40
12819;DHT22;6474;53.474;9.894;2023-12-14T13:01:56;5.70;96.40
12819;DHT22;6474;53.474;9.894;2023-12-14T13:04:24;5.70;96.30
12819;DHT22;6474;53.474;9.894;2023-12-14T13:06:52;5.70;96.30
12819;DHT22;6474;53.474;9.894;2023-12-14T13:09:21;5.70;96.30
12819;DHT22;6474;53.474;9.894;2023-12-14T13:11:49;5.70;96.30
12819;DHT22;6474;53.474;9.894;2023-12-14T13:14:17;5.70;96.30
12819;DHT22;6474;53.474;9.894;2023-12-14T13:16:45;5.60;96.30
12819;DHT22;6474;53.474;9.894;2023-12-14T13:19:15;5.70;96.40
12819;DHT22;6474;53.474;9.894;2023-12-14T13:21:43;5.70;96.40
12819;DHT22;6474;53.474;9.894;2023-12-14T13:24:11;5.70;96.40
12819;DHT22;6474;53.474;9.894;2023-12-14T13:26:39;5.70;96.30
12819;DHT22;6474;53.474;9.894;2023-12-14T13:29:07;5.60;96.30
12819;DHT22;6474;53.474;9.894;2023-12-14T13:31:35;5.60;96.30
12819;DHT22;6474;53.474;9.894;2023-12-14T13:34:03;5.60;96.30
12819;DHT22;6474;53.474;9.894;2023-12-14T13:36:32;5.60;96.30
12819;DHT22;6474;53.474;9.894;2023-12-14T13:39:01;5.60;96.30
12819;DHT22;6474;53.474;9.894;2023-12-14T13:41:29;5.60;96.30
12819;DHT22;6474;53.474;9.894;2023-12-14T13:44:15;5.60;96.30
12819;DHT22;6474;53.474;9.894;2023-12-14T13:46:43;5.60;96.40
12819;DHT22;6474;53.474;9.894;2023-12-14T13:49:11;5.60;96.30
12819;DHT22;6474;53.474;9.894;2023-12-14T13:51:40;5.60;96.30
12819;DHT22;6474;53.474;9.894;2023-12-14T13:54:08;5.60;96.30
12819;DHT22;6474;53.474;9.894;2023-12-14T13:56:36;5.60;96.30
12819;DHT22;6474;53.474;9.894;2023-12-14T13:59:04;5.60;96.30
12819;DHT22;6474;53.474;9.894;2023-12-14T14:01:32;5.60;96.30
12819;DHT22;6474;53.474;9.894;2023-12-14T14:04:00;5.60;96.30
12819;DHT22;6474;53.474;9.894;2023-12-14T14:06:27;5.60;96.20
12819;DHT22;6474;53.474;9.894;2023-12-14T14:08:57;5.60;96.20
12819;DHT22;6474;53.474;9.894;2023-12-14T14:11:25;5.60;96.20
12819;DHT22;6474;53.474;9.894;2023-12-14T14:13:53;5.50;96.20
12819;DHT22;6474;53.474;9.894;2023-12-14T14:16:21;5.50;96.20
12819;DHT22;6474;53.474;9.894;2023-12-14T14:18:51;5.50;96.10
12819;DHT22;6474;53.474;9.894;2023-12-14T14:21:18;5.50;96.10
12819;DHT22;6474;53.474;9.894;2023-12-14T14:23:46;5.50;96.10
12819;DHT22;6474;53.474;9.894;2023-12-14T14:26:15;5.40;96.10
12819;DHT22;6474;53.474;9.894;2023-12-14T14:28:43;5.40;96.10
12819;DHT22;6474;53.474;9.894;2023-12-14T14:31:15;5.40;96.10
12819;DHT22;6474;53.474;9.894;2023-12-14T14:33:43;5.40;96.10
12819;DHT22;6474;53.474;9.894;2023-12-14T14:36:13;5.30;96.10
12819;DHT22;6474;53.474;9.894;2023-12-14T14:38:41;5.30;96.00
12819;DHT22;6474;53.474;9.894;2023-12-14T14:41:09;5.20;96.00
12819;DHT22;6474;53.474;9.894;2023-12-14T14:43:39;5.30;96.10
12819;DHT22;6474;53.474;9.894;2023-12-14T14:46:07;5.20;96.10
12819;DHT22;6474;53.474;9.894;2023-12-14T14:48:34;5.20;96.10
12819;DHT22;6474;53.474;9.894;2023-12-14T14:51:04;5.20;96.10
12819;DHT22;6474;53.474;9.894;2023-12-14T14:53:35;5.20;96.10
12819;DHT22;6474;53.474;9.894;2023-12-14T14:56:04;5.20;96.10
12819;DHT22;6474;53.474;9.894;2023-12-14T14:58:32;5.10;96.10
12819;DHT22;6474;53.474;9.894;2023-12-14T15:01:01;5.10;96.00
12819;DHT22;6474;53.474;9.894;2023-12-14T15:03:29;5.10;96.00
12819;DHT22;6474;53.474;9.894;2023-12-14T15:05:57;5.10;96.00
12819;DHT22;6474;53.474;9.894;2023-12-14T15:08:25;5.10;96.00
12819;DHT22;6474;53.474;9.894;2023-12-14T15:10:53;5.00;96.00
12819;DHT22;6474;53.474;9.894;2023-12-14T15:13:22;5.00;96.00
12819;DHT22;6474;53.474;9.894;2023-12-14T15:15:50;5.00;96.00
12819;DHT22;6474;53.474;9.894;2023-12-14T15:18:19;5.00;96.00
12819;DHT22;6474;53.474;9.894;2023-12-14T15:20:47;5.00;96.00
12819;DHT22;6474;53.474;9.894;2023-12-14T15:23:15;5.00;96.00
12819;DHT22;6474;53.474;9.894;2023-12-14T15:25:43;4.90;96.00
12819;DHT22;6474;53.474;9.894;2023-12-14T15:28:11;4.90;96.00
12819;DHT22;6474;53.474;9.894;2023-12-14T15:30:39;4.90;96.00
12819;DHT22;6474;53.474;9.894;2023-12-14T15:33:07;4.90;96.00
12819;DHT22;6474;53.474;9.894;2023-12-14T15:35:37;4.90;96.00
12819;DHT22;6474;53.474;9.894;2023-12-14T15:38:05;4.90;96.00
12819;DHT22;6474;53.474;9.894;2023-12-14T15:40:32;4.90;96.00
12819;DHT22;6474;53.474;9.894;2023-12-14T15:43:02;4.80;95.90
12819;DHT22;6474;53.474;9.894;2023-12-14T15:45:30;4.80;95.80
12819;DHT22;6474;53.474;9.894;2023-12-14T15:47:59;4.80;95.80
12819;DHT22;6474;53.474;9.894;2023-12-14T15:50:28;4.80;95.80
12819;DHT22;6474;53.474;9.894;2023-12-14T15:52:57;4.70;95.80
12819;DHT22;6474;53.474;9.894;2023-12-14T15:55:25;4.60;95.70
12819;DHT22;6474;53.474;9.894;2023-12-14T15:57:53;4.60;95.70
12819;DHT22;6474;53.474;9.894;2023-12-14T16:00:21;4.60;95.60
12819;DHT22;6474;53.474;9.894;2023-12-14T16:02:49;4.50;95.50
12819;DHT22;6474;53.474;9.894;2023-12-14T16:05:17;4.40;95.40
12819;DHT22;6474;53.474;9.894;2023-12-14T16:07:45;4.30;95.40
12819;DHT22;6474;53.474;9.894;2023-12-14T16:10:16;4.30;95.50
12819;DHT22;6474;53.474;9.894;2023-12-14T16:12:44;4.20;95.40